Montara, CA (94037)

6:00 AM PDT on July 27, 2016 (GMT -0700)
Montara | | Change Station

Elev 150 ft 37.54 °N, 122.51 °W | Updated 20 seconds ago

Partly Cloudy
Partly Cloudy
49.7 °F
Feels Like 50 °F
N
0.0
Wind Variable Wind from South
Gusts 3.0 mph

Today
High -- | Low -- °F
--% Chance of Precip.
Yesterday
High -- | Low -- °F
Precip. -- in
Pressure 29.88 in
Visibility 10.0 miles
Clouds Few 700 ft
Few 20000 ft
Windchill 50 °F
Dew Point 49 °F
Humidity 96%
Rainfall 0.00 in
Snow Depth Not available.
6:10 AM 8:22 PM
Last Quarter, 43% visible
METAR KSFO 271256Z 28009KT 10SM FEW007 FEW200 13/10 A2988 RMK AO2 SLP118 T01330100
Pressure 29.88 in
Visibility 10.0 miles
Clouds Few 700 ft
Few 20000 ft
Windchill 50 °F
Dew Point 49 °F
Humidity 96%
Rainfall 0.00 in
Snow Depth Not available.
6:10 AM 8:22 PM
Last Quarter, 43% visible
METAR KSFO 271256Z 28009KT 10SM FEW007 FEW200 13/10 A2988 RMK AO2 SLP118 T01330100

10-Day Weather Forecast

Almanac

Astronomy

Jul. 27, 2016 Rise Set
Actual Time
Civil Twilight
Nautical Twilight
Astronomical Twilight
Moon
Length of Visible Light
Length of Day
Tomorrow will be .
, % of the Moon is Illuminated

Today's Extremes

State Highs State Lows

Community

WunderPhotos

Upload Photos

1,927,841 photos uploaded!

WunderBlog® & News

Nearby

Air Quality

  Air Quality AQ Index Pollutant
Not available.

Snow Depth

Station Depth Elevation

Earthquake Activity

City Distance Mag. Time & Date
Minimum magnitude displayed is 2.5.

Coastal Water Temperatures

Place Temperature

Stations

Nearby Weather Stations

Station Location Temp. Windchill Dew Point Humidity Wind Precip. Elev Updated Type
                   

Watches & Warnings

There are currently no watches in effect.